createdAt,value
2023-04-18T00:00:31.201Z,9.00
2023-04-18T00:02:59.188Z,9.10
2023-04-18T00:05:27.224Z,9.00
2023-04-18T00:07:54.201Z,9.00
2023-04-18T00:10:20.994Z,8.90
2023-04-18T00:12:47.766Z,8.90
2023-04-18T00:15:14.495Z,8.90
2023-04-18T00:17:41.178Z,8.80
2023-04-18T00:20:10.557Z,8.80
2023-04-18T00:22:42.229Z,8.70
2023-04-18T00:25:13.095Z,8.70
2023-04-18T00:27:39.928Z,8.70
2023-04-18T00:30:09.322Z,8.70
2023-04-18T00:32:37.950Z,8.70
2023-04-18T00:35:04.935Z,8.70
2023-04-18T00:37:31.666Z,8.70
2023-04-18T00:39:58.413Z,8.60
2023-04-18T00:42:27.677Z,8.60
2023-04-18T00:44:54.340Z,8.60
2023-04-18T00:47:21.052Z,8.60
2023-04-18T00:49:48.106Z,8.60
2023-04-18T00:52:15.607Z,8.60
2023-04-18T00:54:42.958Z,8.60
2023-04-18T00:57:11.298Z,8.60
2023-04-18T00:59:38.540Z,8.60
2023-04-18T01:02:08.042Z,8.70
2023-04-18T01:04:34.994Z,8.70
2023-04-18T01:07:02.143Z,8.80
2023-04-18T01:09:29.170Z,8.80
2023-04-18T01:11:56.003Z,8.90
2023-04-18T01:14:23.278Z,8.90
2023-04-18T01:16:49.989Z,8.90
2023-04-18T01:19:19.158Z,8.90
2023-04-18T01:21:46.168Z,8.90
2023-04-18T01:24:14.982Z,8.90
2023-04-18T01:26:43.946Z,8.90
2023-04-18T01:29:11.144Z,8.80
2023-04-18T01:31:38.433Z,8.90
2023-04-18T01:34:05.855Z,8.90
2023-04-18T01:36:33.001Z,8.90
2023-04-18T01:39:00.385Z,8.80
2023-04-18T01:41:32.294Z,8.80
2023-04-18T01:43:59.349Z,8.60
2023-04-18T01:46:26.591Z,8.60
2023-04-18T01:48:54.000Z,8.60
2023-04-18T01:51:21.431Z,8.50
2023-04-18T01:53:48.427Z,8.50
2023-04-18T01:56:15.207Z,8.50
2023-04-18T01:58:41.895Z,8.60
2023-04-18T02:01:08.862Z,8.60
2023-04-18T02:03:35.995Z,8.60
2023-04-18T02:06:03.628Z,8.60
2023-04-18T02:08:33.114Z,8.60
2023-04-18T02:11:01.538Z,8.60
2023-04-18T02:13:28.786Z,8.60
2023-04-18T02:15:57.585Z,8.60
2023-04-18T02:18:24.891Z,8.50
2023-04-18T02:20:51.878Z,8.50
2023-04-18T02:23:19.207Z,8.50
2023-04-18T02:25:47.591Z,8.60
2023-04-18T02:28:17.369Z,8.60
2023-04-18T02:30:44.087Z,8.50
2023-04-18T02:33:10.777Z,8.60
2023-04-18T02:35:37.559Z,8.60
2023-04-18T02:38:04.212Z,8.50
2023-04-18T02:40:30.888Z,8.50
2023-04-18T02:42:59.835Z,8.50
2023-04-18T02:45:26.510Z,8.50
2023-04-18T02:47:56.389Z,8.50
2023-04-18T02:50:24.480Z,8.60
2023-04-18T02:52:52.888Z,8.50
2023-04-18T02:55:24.291Z,8.60
2023-04-18T02:57:51.922Z,8.50
2023-04-18T03:00:38.968Z,8.60
2023-04-18T03:03:37.849Z,8.60
2023-04-18T03:06:27.488Z,8.50
2023-04-18T03:08:55.491Z,8.50
2023-04-18T03:11:24.131Z,8.50
2023-04-18T03:13:51.040Z,8.50
2023-04-18T03:16:18.361Z,8.50
2023-04-18T03:18:45.342Z,8.40
2023-04-18T03:21:12.234Z,8.50
2023-04-18T03:23:39.321Z,8.40
2023-04-18T03:26:07.472Z,8.50
2023-04-18T03:28:36.333Z,8.40
2023-04-18T03:31:03.780Z,8.40
2023-04-18T03:33:33.438Z,8.40
2023-04-18T03:36:08.096Z,8.50
2023-04-18T03:38:35.146Z,8.50
2023-04-18T03:41:03.185Z,8.50
2023-04-18T03:43:33.838Z,8.50
2023-04-18T03:46:01.373Z,8.50
2023-04-18T03:48:29.109Z,8.50
2023-04-18T03:50:59.479Z,8.50
2023-04-18T03:53:26.166Z,8.50
2023-04-18T03:55:56.150Z,8.50
2023-04-18T03:58:28.200Z,8.50
2023-04-18T04:00:55.205Z,8.50
2023-04-18T04:03:22.110Z,8.40
2023-04-18T04:05:49.317Z,8.40
2023-04-18T04:08:16.408Z,8.40
2023-04-18T04:10:45.011Z,8.40
2023-04-18T04:13:11.939Z,8.40
2023-04-18T04:15:41.330Z,8.50
2023-04-18T04:18:10.272Z,8.50
2023-04-18T04:20:40.594Z,8.50
2023-04-18T04:23:12.545Z,8.40
2023-04-18T04:25:40.078Z,8.40
2023-04-18T04:28:15.908Z,8.40
2023-04-18T04:30:52.170Z,8.40
2023-04-18T04:33:20.767Z,8.50
2023-04-18T04:35:48.153Z,8.50
2023-04-18T04:38:15.364Z,8.50
2023-04-18T04:40:46.671Z,8.50
2023-04-18T04:43:15.351Z,8.50
2023-04-18T04:45:44.660Z,8.50
2023-04-18T04:48:12.218Z,8.50
2023-04-18T04:50:40.176Z,8.50
2023-04-18T04:53:07.019Z,8.50
2023-04-18T04:55:34.149Z,8.50
2023-04-18T04:58:02.853Z,8.50
2023-04-18T05:00:40.562Z,8.50
2023-04-18T05:03:08.341Z,8.50
2023-04-18T05:05:35.755Z,8.50
2023-04-18T05:08:03.481Z,8.50
2023-04-18T05:10:30.577Z,8.50
2023-04-18T05:12:57.259Z,8.50
2023-04-18T05:15:24.828Z,8.50
2023-04-18T05:17:51.899Z,8.60
2023-04-18T05:20:18.598Z,8.60
2023-04-18T05:22:45.442Z,8.60
2023-04-18T05:25:12.626Z,8.60
2023-04-18T05:27:39.481Z,8.60
2023-04-18T05:30:07.203Z,8.50
2023-04-18T05:32:34.383Z,8.50
2023-04-18T05:35:01.043Z,8.60
2023-04-18T05:37:27.744Z,8.60
2023-04-18T05:39:54.418Z,8.50
2023-04-18T05:42:21.280Z,8.60
2023-04-18T05:44:48.115Z,8.50
2023-04-18T05:47:17.250Z,8.50
2023-04-18T05:49:43.873Z,8.50
2023-04-18T05:52:11.315Z,8.40
2023-04-18T05:54:38.061Z,8.50
2023-04-18T05:57:05.016Z,8.50
2023-04-18T05:59:31.818Z,8.50
2023-04-18T06:01:58.740Z,8.50
2023-04-18T06:04:25.646Z,8.50
2023-04-18T06:06:52.399Z,8.60
2023-04-18T06:09:19.382Z,8.60
2023-04-18T06:11:46.023Z,8.50
2023-04-18T06:14:12.874Z,8.60
2023-04-18T06:16:39.687Z,8.50
2023-04-18T06:19:06.595Z,8.50
2023-04-18T06:21:33.355Z,8.50
2023-04-18T06:24:02.633Z,8.50
2023-04-18T06:26:32.128Z,8.60
2023-04-18T06:28:58.854Z,8.60
2023-04-18T06:31:25.507Z,8.60
2023-04-18T06:33:52.313Z,8.60
2023-04-18T06:36:19.175Z,8.60
2023-04-18T06:38:48.187Z,8.60
2023-04-18T06:41:15.507Z,8.70
2023-04-18T06:43:52.035Z,8.70
2023-04-18T06:46:28.725Z,8.60
2023-04-18T06:48:55.602Z,8.70
2023-04-18T06:51:22.244Z,8.60
2023-04-18T06:53:52.420Z,8.70
2023-04-18T06:56:20.390Z,8.80
2023-04-18T06:58:47.608Z,8.80
2023-04-18T07:01:14.414Z,8.90
2023-04-18T07:03:41.257Z,8.90
2023-04-18T07:06:10.466Z,8.90
2023-04-18T07:08:37.458Z,9.00
2023-04-18T07:11:04.252Z,9.00
2023-04-18T07:13:31.019Z,9.00
2023-04-18T07:15:57.772Z,8.90
2023-04-18T07:18:36.583Z,8.90
2023-04-18T07:21:07.196Z,8.90
2023-04-18T07:23:34.072Z,8.90
2023-04-18T07:26:02.559Z,8.90
2023-04-18T07:28:29.698Z,8.90
2023-04-18T07:30:58.807Z,9.00
2023-04-18T07:33:25.502Z,9.00
2023-04-18T07:35:52.996Z,9.00
2023-04-18T07:38:19.946Z,9.10
2023-04-18T07:40:46.813Z,9.20
2023-04-18T07:43:13.449Z,9.20
2023-04-18T07:45:43.393Z,9.20
2023-04-18T07:48:11.092Z,9.20
2023-04-18T07:50:37.865Z,9.20
2023-04-18T07:53:04.540Z,9.20
2023-04-18T07:55:31.792Z,9.20
2023-04-18T07:57:58.558Z,9.20
2023-04-18T08:00:25.182Z,9.30
2023-04-18T08:02:51.963Z,9.30
2023-04-18T08:05:19.821Z,9.40
2023-04-18T08:07:46.610Z,9.50
2023-04-18T08:10:13.287Z,9.60
2023-04-18T08:12:40.593Z,9.60
2023-04-18T08:15:08.087Z,9.60
2023-04-18T08:17:34.755Z,9.60
2023-04-18T08:20:04.857Z,9.70
2023-04-18T08:22:31.917Z,9.60
2023-04-18T08:25:04.922Z,9.60
2023-04-18T08:27:33.177Z,9.60
2023-04-18T08:30:00.459Z,9.60
2023-04-18T08:32:27.269Z,9.60
2023-04-18T08:34:54.295Z,9.80
2023-04-18T08:37:21.139Z,9.90
2023-04-18T08:39:47.766Z,10.00
2023-04-18T08:42:19.358Z,10.10
2023-04-18T08:44:47.243Z,10.20
2023-04-18T08:47:14.720Z,10.30
2023-04-18T08:49:42.691Z,10.40
2023-04-18T08:52:17.024Z,10.40
2023-04-18T08:54:45.356Z,10.50
2023-04-18T08:57:13.680Z,10.50
2023-04-18T08:59:43.115Z,10.60
2023-04-18T09:02:11.622Z,10.60
2023-04-18T09:04:44.921Z,10.60
2023-04-18T09:07:12.523Z,10.70
2023-04-18T09:09:43.495Z,10.70
2023-04-18T09:12:11.299Z,10.80
2023-04-18T09:14:42.708Z,11.00
2023-04-18T09:17:11.719Z,11.00
2023-04-18T09:19:44.859Z,11.00
2023-04-18T09:22:13.316Z,11.00
2023-04-18T09:24:47.258Z,10.90
2023-04-18T09:27:14.250Z,10.90
2023-04-18T09:29:49.995Z,11.00
2023-04-18T09:32:27.534Z,10.90
2023-04-18T09:34:57.995Z,10.80
2023-04-18T09:37:25.459Z,10.90
2023-04-18T09:39:52.624Z,10.90
2023-04-18T09:42:19.575Z,11.00
2023-04-18T09:45:06.060Z,11.10
2023-04-18T09:47:35.001Z,11.20
2023-04-18T09:50:08.906Z,11.20
2023-04-18T09:52:36.951Z,11.30
2023-04-18T09:55:05.342Z,11.30
2023-04-18T09:57:33.029Z,11.30
2023-04-18T10:00:03.137Z,11.20
2023-04-18T10:02:35.846Z,11.10
2023-04-18T10:05:04.824Z,11.10
2023-04-18T10:07:32.381Z,11.20
2023-04-18T10:09:59.332Z,11.10
2023-04-18T10:12:26.318Z,11.20
2023-04-18T10:14:53.462Z,11.20
2023-04-18T10:17:20.182Z,11.30
2023-04-18T10:20:02.793Z,11.40
2023-04-18T10:22:29.552Z,11.50
2023-04-18T10:24:57.054Z,11.70
2023-04-18T10:27:42.667Z,11.70
2023-04-18T10:30:09.785Z,11.70
2023-04-18T10:32:36.462Z,11.70
2023-04-18T10:35:04.662Z,11.80
2023-04-18T10:37:32.354Z,11.80
2023-04-18T10:40:02.633Z,11.80
2023-04-18T10:42:47.861Z,11.90
2023-04-18T10:45:22.101Z,11.80
2023-04-18T10:47:48.919Z,11.80
2023-04-18T10:50:16.337Z,11.70
2023-04-18T10:52:43.378Z,11.70
2023-04-18T10:55:15.916Z,11.90
2023-04-18T10:57:46.755Z,12.00
2023-04-18T11:00:17.370Z,12.00
2023-04-18T11:02:55.936Z,12.00
2023-04-18T11:05:26.752Z,12.00
2023-04-18T11:07:53.875Z,12.00
2023-04-18T11:10:21.930Z,12.00
2023-04-18T11:12:48.894Z,12.00
2023-04-18T11:15:17.887Z,12.00
2023-04-18T11:17:44.830Z,12.10
2023-04-18T11:20:17.646Z,12.20
2023-04-18T11:22:48.453Z,12.20
2023-04-18T11:25:16.581Z,12.30
2023-04-18T11:27:47.527Z,12.40
2023-04-18T11:30:14.873Z,12.30
2023-04-18T11:32:41.741Z,12.30
2023-04-18T11:35:08.973Z,12.30
2023-04-18T11:37:36.115Z,12.40
2023-04-18T11:40:03.288Z,12.40
2023-04-18T11:42:32.365Z,12.50
2023-04-18T11:45:03.855Z,12.50
2023-04-18T11:47:33.912Z,12.40
2023-04-18T11:50:04.119Z,12.40
2023-04-18T11:52:31.704Z,12.50
2023-04-18T11:55:09.682Z,12.50
2023-04-18T11:57:37.032Z,12.60
2023-04-18T12:00:08.803Z,12.80
2023-04-18T12:02:38.275Z,12.80
2023-04-18T12:05:05.624Z,12.80
2023-04-18T12:07:37.205Z,12.80
2023-04-18T12:10:05.149Z,12.70
2023-04-18T12:12:31.841Z,12.80
2023-04-18T12:14:59.286Z,12.80
2023-04-18T12:17:27.147Z,12.90
2023-04-18T12:19:54.078Z,12.90
2023-04-18T12:22:25.373Z,13.00
2023-04-18T12:25:08.543Z,13.10
2023-04-18T12:27:51.284Z,13.10
2023-04-18T12:30:22.000Z,13.20
2023-04-18T12:32:49.881Z,13.20
2023-04-18T12:35:20.617Z,13.30
2023-04-18T12:37:48.060Z,13.30
2023-04-18T12:40:15.442Z,13.40
2023-04-18T12:42:42.476Z,13.40
2023-04-18T12:45:09.844Z,13.40
2023-04-18T12:47:41.061Z,13.40
2023-04-18T12:50:11.236Z,13.40
2023-04-18T12:52:39.091Z,13.30
2023-04-18T12:55:11.111Z,13.30
2023-04-18T12:57:38.160Z,13.30
2023-04-18T13:00:12.638Z,13.30
2023-04-18T13:02:40.684Z,13.40
2023-04-18T13:05:08.476Z,13.50
2023-04-18T13:07:37.628Z,13.60
2023-04-18T13:10:04.962Z,13.80
2023-04-18T13:12:31.665Z,13.70
2023-04-18T13:14:58.404Z,13.70
2023-04-18T13:17:25.854Z,13.70
2023-04-18T13:19:52.654Z,13.70
2023-04-18T13:22:20.453Z,13.70
2023-04-18T13:24:47.689Z,13.70
2023-04-18T13:27:14.938Z,13.80
2023-04-18T13:29:42.262Z,13.90
2023-04-18T13:32:09.506Z,13.80
2023-04-18T13:34:43.644Z,13.90
2023-04-18T13:37:10.590Z,14.00
2023-04-18T13:39:37.403Z,14.00
2023-04-18T13:42:04.940Z,14.00
2023-04-18T13:44:31.613Z,14.00
2023-04-18T13:47:00.971Z,14.10
2023-04-18T13:49:28.023Z,14.10
2023-04-18T13:51:57.480Z,14.20
2023-04-18T13:54:24.638Z,14.20
2023-04-18T13:56:51.284Z,14.30
2023-04-18T13:59:18.265Z,14.30
2023-04-18T14:01:44.930Z,14.40
2023-04-18T14:04:11.668Z,14.40
2023-04-18T14:06:38.728Z,14.40
2023-04-18T14:09:06.797Z,14.50
2023-04-18T14:11:36.493Z,14.60
2023-04-18T14:14:03.222Z,14.50
2023-04-18T14:16:32.595Z,14.50
2023-04-18T14:18:59.813Z,14.40
2023-04-18T14:21:26.932Z,14.50
2023-04-18T14:23:53.759Z,14.50
2023-04-18T14:26:20.865Z,14.40
2023-04-18T14:28:47.728Z,14.40
2023-04-18T14:31:14.608Z,14.40
2023-04-18T14:33:41.843Z,14.40
2023-04-18T14:36:09.569Z,14.40
2023-04-18T14:38:36.306Z,14.40
2023-04-18T14:41:06.217Z,14.50
2023-04-18T14:43:33.061Z,14.50
2023-04-18T14:45:59.939Z,14.40
2023-04-18T14:48:27.600Z,14.30
2023-04-18T14:51:02.366Z,14.20
2023-04-18T14:53:29.061Z,14.20
2023-04-18T14:55:56.265Z,14.10
2023-04-18T14:58:23.062Z,14.10
2023-04-18T15:00:50.618Z,14.10
2023-04-18T15:03:17.474Z,14.10
2023-04-18T15:05:46.490Z,14.20
2023-04-18T15:08:14.398Z,14.20
2023-04-18T15:10:42.472Z,14.20
2023-04-18T15:13:09.669Z,14.20
2023-04-18T15:15:37.883Z,14.20
2023-04-18T15:18:04.807Z,14.10
2023-04-18T15:20:31.566Z,14.00
2023-04-18T15:22:58.434Z,14.00
2023-04-18T15:25:26.247Z,13.90
2023-04-18T15:27:53.086Z,13.90
2023-04-18T15:30:25.898Z,13.80
2023-04-18T15:32:55.908Z,13.80
2023-04-18T15:35:22.719Z,13.80
2023-04-18T15:37:49.391Z,13.80
2023-04-18T15:40:18.507Z,13.80
2023-04-18T15:42:45.875Z,13.80
2023-04-18T15:45:12.841Z,13.80
2023-04-18T15:47:40.686Z,13.80
2023-04-18T15:50:08.598Z,13.70
2023-04-18T15:52:36.389Z,13.70
2023-04-18T15:55:04.927Z,13.70
2023-04-18T15:57:32.119Z,13.80
2023-04-18T15:59:59.468Z,13.80
2023-04-18T16:02:27.158Z,13.70
2023-04-18T16:04:54.033Z,13.80
2023-04-18T16:07:20.981Z,13.70
2023-04-18T16:09:47.648Z,13.60
2023-04-18T16:12:14.715Z,13.70
2023-04-18T16:14:41.593Z,13.70
2023-04-18T16:17:08.720Z,13.80
2023-04-18T16:19:38.312Z,13.80
2023-04-18T16:22:06.988Z,13.80
2023-04-18T16:24:33.662Z,13.80
2023-04-18T16:27:00.896Z,13.80
2023-04-18T16:29:27.646Z,13.80
2023-04-18T16:31:54.516Z,13.80
2023-04-18T16:34:21.718Z,13.80
2023-04-18T16:36:50.810Z,13.70
2023-04-18T16:39:18.625Z,13.70
2023-04-18T16:41:45.290Z,13.70
2023-04-18T16:44:12.249Z,13.80
2023-04-18T16:46:42.352Z,13.90
2023-04-18T16:49:09.139Z,14.10
2023-04-18T16:51:37.236Z,14.40
2023-04-18T16:54:04.609Z,14.70
2023-04-18T16:56:31.372Z,14.90
2023-04-18T16:58:58.871Z,15.00
2023-04-18T17:01:25.786Z,15.10
2023-04-18T17:03:52.625Z,15.10
2023-04-18T17:06:19.323Z,15.00
2023-04-18T17:08:46.065Z,15.10
2023-04-18T17:11:12.687Z,15.10
2023-04-18T17:13:39.313Z,15.20
2023-04-18T17:16:06.816Z,15.10
2023-04-18T17:18:33.579Z,15.10
2023-04-18T17:21:00.478Z,15.00
2023-04-18T17:23:27.180Z,15.00
2023-04-18T17:25:54.089Z,15.00
2023-04-18T17:28:23.694Z,14.90
2023-04-18T17:30:50.908Z,14.90
2023-04-18T17:33:17.823Z,14.80
2023-04-18T17:35:44.472Z,14.90
2023-04-18T17:38:11.334Z,14.90
2023-04-18T17:40:39.235Z,14.80
2023-04-18T17:43:06.070Z,14.80
2023-04-18T17:45:32.774Z,14.70
2023-04-18T17:48:02.060Z,14.50
2023-04-18T17:50:28.946Z,14.50
2023-04-18T17:52:55.851Z,14.30
2023-04-18T17:55:22.476Z,14.00
2023-04-18T17:57:49.058Z,13.80
2023-04-18T18:00:15.884Z,13.60
2023-04-18T18:02:43.028Z,13.40
2023-04-18T18:05:13.373Z,13.20
2023-04-18T18:07:42.831Z,13.00
2023-04-18T18:10:10.055Z,12.80
2023-04-18T18:12:37.980Z,12.70
2023-04-18T18:15:05.320Z,12.60
2023-04-18T18:17:32.043Z,12.50
2023-04-18T18:19:58.767Z,12.50
2023-04-18T18:22:26.278Z,12.40
2023-04-18T18:24:53.097Z,12.30
2023-04-18T18:27:20.257Z,12.20
2023-04-18T18:29:48.265Z,12.20
2023-04-18T18:32:14.949Z,12.10
2023-04-18T18:34:41.586Z,12.10
2023-04-18T18:37:08.488Z,12.10
2023-04-18T18:39:36.526Z,12.00
2023-04-18T18:42:03.203Z,12.00
2023-04-18T18:44:30.459Z,11.90
2023-04-18T18:46:58.637Z,11.90
2023-04-18T18:49:26.355Z,11.90
2023-04-18T18:51:53.210Z,11.80
2023-04-18T18:54:19.898Z,11.80
2023-04-18T18:56:46.629Z,11.80
2023-04-18T18:59:13.557Z,11.70
2023-04-18T19:01:40.877Z,11.60
2023-04-18T19:04:08.036Z,11.60
2023-04-18T19:06:35.211Z,11.50
2023-04-18T19:09:01.876Z,11.50
2023-04-18T19:11:29.188Z,11.50
2023-04-18T19:13:55.893Z,11.50
2023-04-18T19:16:22.762Z,11.40
2023-04-18T19:18:50.435Z,11.40
2023-04-18T19:21:17.400Z,11.30
2023-04-18T19:23:44.043Z,11.30
2023-04-18T19:26:10.766Z,11.20
2023-04-18T19:28:37.695Z,11.20
2023-04-18T19:31:04.905Z,11.20
2023-04-18T19:33:31.632Z,11.20
2023-04-18T19:35:58.643Z,11.20
2023-04-18T19:38:26.270Z,11.10
2023-04-18T19:40:52.878Z,11.10
2023-04-18T19:43:19.583Z,11.10
2023-04-18T19:45:46.370Z,11.00
2023-04-18T19:48:13.471Z,11.00
2023-04-18T19:50:40.644Z,11.00
2023-04-18T19:53:07.485Z,11.00
2023-04-18T19:55:36.675Z,11.00
2023-04-18T19:58:05.080Z,11.00
2023-04-18T20:00:31.695Z,11.00
2023-04-18T20:02:58.829Z,11.00
2023-04-18T20:05:25.877Z,11.00
2023-04-18T20:07:52.579Z,11.00
2023-04-18T20:10:21.188Z,11.00
2023-04-18T20:12:49.497Z,11.00
2023-04-18T20:15:17.135Z,11.10
2023-04-18T20:17:43.952Z,11.10
2023-04-18T20:20:11.457Z,11.20
2023-04-18T20:22:40.317Z,11.30
2023-04-18T20:25:07.159Z,11.30
2023-04-18T20:27:34.008Z,11.30
2023-04-18T20:30:00.762Z,11.30
2023-04-18T20:32:27.975Z,11.30
2023-04-18T20:34:54.796Z,11.30
2023-04-18T20:37:21.808Z,11.30
2023-04-18T20:39:48.424Z,11.30
2023-04-18T20:42:15.636Z,11.40
2023-04-18T20:44:44.044Z,11.40
2023-04-18T20:47:11.701Z,11.40
2023-04-18T20:49:39.471Z,11.50
2023-04-18T20:52:08.247Z,11.50
2023-04-18T20:54:35.329Z,11.50
2023-04-18T20:57:02.770Z,11.60
2023-04-18T20:59:29.677Z,11.60
2023-04-18T21:01:56.456Z,11.60
2023-04-18T21:04:25.085Z,11.60
2023-04-18T21:06:52.246Z,11.60
2023-04-18T21:09:19.133Z,11.60
2023-04-18T21:11:46.008Z,11.60
2023-04-18T21:14:13.147Z,11.60
2023-04-18T21:16:40.212Z,11.60
2023-04-18T21:19:07.070Z,11.60
2023-04-18T21:21:34.269Z,11.60
2023-04-18T21:24:01.990Z,11.60
2023-04-18T21:26:28.652Z,11.70
2023-04-18T21:28:56.640Z,11.70
2023-04-18T21:31:23.790Z,11.60
2023-04-18T21:33:54.615Z,11.70
2023-04-18T21:36:21.422Z,11.70
2023-04-18T21:38:48.610Z,11.70
2023-04-18T21:41:16.760Z,11.70
2023-04-18T21:43:43.723Z,11.70
2023-04-18T21:46:16.271Z,11.70
2023-04-18T21:48:44.429Z,11.70
2023-04-18T21:51:11.504Z,11.70
2023-04-18T21:53:39.639Z,11.80
2023-04-18T21:56:07.179Z,11.80
2023-04-18T21:58:34.360Z,11.80
2023-04-18T22:01:03.759Z,11.80
2023-04-18T22:03:31.406Z,11.80
2023-04-18T22:05:58.610Z,11.80
2023-04-18T22:08:28.376Z,11.80
2023-04-18T22:10:55.937Z,11.90
2023-04-18T22:13:22.587Z,11.90
2023-04-18T22:15:49.940Z,11.90
2023-04-18T22:18:17.925Z,11.90
2023-04-18T22:20:45.342Z,11.90
2023-04-18T22:23:12.111Z,11.90
2023-04-18T22:25:39.045Z,11.90
2023-04-18T22:28:06.048Z,11.90
2023-04-18T22:30:32.759Z,11.90
2023-04-18T22:32:59.532Z,11.90
2023-04-18T22:35:26.679Z,11.90
2023-04-18T22:37:53.432Z,11.90
2023-04-18T22:40:20.368Z,11.90
2023-04-18T22:42:47.134Z,11.90
2023-04-18T22:45:14.507Z,11.90
2023-04-18T22:47:41.321Z,11.90
2023-04-18T22:50:08.335Z,11.90
2023-04-18T22:52:35.193Z,11.90
2023-04-18T22:55:02.506Z,11.90
2023-04-18T22:57:29.677Z,11.80
2023-04-18T22:59:56.452Z,11.90
2023-04-18T23:02:23.228Z,11.90
2023-04-18T23:04:50.499Z,11.90
2023-04-18T23:07:17.318Z,11.90
2023-04-18T23:09:44.065Z,11.90
2023-04-18T23:12:13.227Z,11.90
2023-04-18T23:14:41.783Z,11.90
2023-04-18T23:17:10.711Z,11.90
2023-04-18T23:19:37.472Z,11.80
2023-04-18T23:22:04.292Z,11.80
2023-04-18T23:24:31.106Z,11.80
2023-04-18T23:26:58.182Z,11.80
2023-04-18T23:29:25.081Z,11.90
2023-04-18T23:31:53.272Z,11.90
2023-04-18T23:34:20.100Z,11.90
2023-04-18T23:36:47.238Z,11.90
2023-04-18T23:39:13.915Z,11.90
2023-04-18T23:41:40.850Z,11.90
2023-04-18T23:44:07.601Z,11.80
2023-04-18T23:46:35.784Z,11.90
2023-04-18T23:49:03.399Z,11.90
2023-04-18T23:51:30.952Z,11.90
2023-04-18T23:53:57.636Z,11.90
2023-04-18T23:56:24.505Z,11.90
2023-04-18T23:58:51.312Z,11.90
